sensor_id;sensor_type;location;lat;lon;timestamp;P1;durP1;ratioP1;P2;durP2;ratioP2
15063;SDS011;7631;52.088;5.088;2023-01-08T00:01:13;3.33;;;2.50;;
15063;SDS011;7631;52.088;5.088;2023-01-08T00:03:39;4.50;;;2.73;;
15063;SDS011;7631;52.088;5.088;2023-01-08T00:06:05;3.27;;;2.57;;
15063;SDS011;7631;52.088;5.088;2023-01-08T00:08:31;2.63;;;2.00;;
15063;SDS011;7631;52.088;5.088;2023-01-08T00:10:57;3.07;;;2.40;;
15063;SDS011;7631;52.088;5.088;2023-01-08T00:13:22;4.67;;;2.53;;
15063;SDS011;7631;52.088;5.088;2023-01-08T00:15:47;5.27;;;2.53;;
15063;SDS011;7631;52.088;5.088;2023-01-08T00:18:13;3.87;;;2.40;;
15063;SDS011;7631;52.088;5.088;2023-01-08T00:20:44;3.10;;;2.30;;
15063;SDS011;7631;52.088;5.088;2023-01-08T00:23:13;3.03;;;2.00;;
15063;SDS011;7631;52.088;5.088;2023-01-08T00:25:38;2.87;;;2.20;;
15063;SDS011;7631;52.088;5.088;2023-01-08T00:28:04;2.73;;;2.00;;
15063;SDS011;7631;52.088;5.088;2023-01-08T00:30:29;2.57;;;2.10;;
15063;SDS011;7631;52.088;5.088;2023-01-08T00:32:54;2.93;;;2.10;;
15063;SDS011;7631;52.088;5.088;2023-01-08T00:35:19;2.83;;;1.83;;
15063;SDS011;7631;52.088;5.088;2023-01-08T00:37:47;2.67;;;1.77;;
15063;SDS011;7631;52.088;5.088;2023-01-08T00:40:12;2.80;;;1.80;;
15063;SDS011;7631;52.088;5.088;2023-01-08T00:42:38;2.73;;;2.10;;
15063;SDS011;7631;52.088;5.088;2023-01-08T00:45:03;2.10;;;1.70;;
15063;SDS011;7631;52.088;5.088;2023-01-08T00:47:28;2.43;;;1.90;;
15063;SDS011;7631;52.088;5.088;2023-01-08T00:49:53;2.60;;;1.63;;
15063;SDS011;7631;52.088;5.088;2023-01-08T00:52:19;2.93;;;2.20;;
15063;SDS011;7631;52.088;5.088;2023-01-08T00:54:44;2.73;;;1.87;;
15063;SDS011;7631;52.088;5.088;2023-01-08T00:57:09;2.87;;;2.17;;
15063;SDS011;7631;52.088;5.088;2023-01-08T00:59:34;2.60;;;1.83;;
15063;SDS011;7631;52.088;5.088;2023-01-08T01:01:59;2.33;;;1.83;;
15063;SDS011;7631;52.088;5.088;2023-01-08T01:04:25;2.17;;;1.67;;
15063;SDS011;7631;52.088;5.088;2023-01-08T01:06:50;1.77;;;1.50;;
15063;SDS011;7631;52.088;5.088;2023-01-08T01:09:15;2.43;;;1.67;;
15063;SDS011;7631;52.088;5.088;2023-01-08T01:11:40;2.13;;;1.80;;
15063;SDS011;7631;52.088;5.088;2023-01-08T01:14:06;2.60;;;1.70;;
15063;SDS011;7631;52.088;5.088;2023-01-08T01:16:31;2.47;;;1.43;;
15063;SDS011;7631;52.088;5.088;2023-01-08T01:18:56;2.13;;;1.77;;
15063;SDS011;7631;52.088;5.088;2023-01-08T01:21:24;1.93;;;1.60;;
15063;SDS011;7631;52.088;5.088;2023-01-08T01:23:49;2.47;;;1.80;;
15063;SDS011;7631;52.088;5.088;2023-01-08T01:26:17;1.80;;;1.53;;
15063;SDS011;7631;52.088;5.088;2023-01-08T01:28:45;2.80;;;1.67;;
15063;SDS011;7631;52.088;5.088;2023-01-08T01:31:11;2.17;;;1.87;;
15063;SDS011;7631;52.088;5.088;2023-01-08T01:33:37;2.27;;;1.90;;
15063;SDS011;7631;52.088;5.088;2023-01-08T01:36:02;2.53;;;1.50;;
15063;SDS011;7631;52.088;5.088;2023-01-08T01:38:28;2.13;;;1.50;;
15063;SDS011;7631;52.088;5.088;2023-01-08T01:40:53;3.10;;;1.50;;
15063;SDS011;7631;52.088;5.088;2023-01-08T01:43:34;3.53;;;1.80;;
15063;SDS011;7631;52.088;5.088;2023-01-08T01:46:00;2.57;;;1.63;;
15063;SDS011;7631;52.088;5.088;2023-01-08T01:48:25;2.07;;;1.60;;
15063;SDS011;7631;52.088;5.088;2023-01-08T01:50:51;3.43;;;1.90;;
15063;SDS011;7631;52.088;5.088;2023-01-08T01:53:18;1.80;;;1.40;;
15063;SDS011;7631;52.088;5.088;2023-01-08T01:55:46;2.10;;;1.60;;
15063;SDS011;7631;52.088;5.088;2023-01-08T01:58:19;2.00;;;1.70;;
15063;SDS011;7631;52.088;5.088;2023-01-08T02:00:46;2.13;;;1.60;;
15063;SDS011;7631;52.088;5.088;2023-01-08T02:03:12;3.67;;;2.00;;
15063;SDS011;7631;52.088;5.088;2023-01-08T02:05:59;3.00;;;1.50;;
15063;SDS011;7631;52.088;5.088;2023-01-08T02:11:06;2.37;;;1.43;;
15063;SDS011;7631;52.088;5.088;2023-01-08T02:13:33;2.10;;;1.50;;
15063;SDS011;7631;52.088;5.088;2023-01-08T02:16:13;1.90;;;1.30;;
15063;SDS011;7631;52.088;5.088;2023-01-08T02:23:36;1.93;;;1.30;;
15063;SDS011;7631;52.088;5.088;2023-01-08T02:26:08;1.70;;;1.40;;
15063;SDS011;7631;52.088;5.088;2023-01-08T02:31:12;1.67;;;1.23;;
15063;SDS011;7631;52.088;5.088;2023-01-08T02:33:38;1.57;;;1.40;;
15063;SDS011;7631;52.088;5.088;2023-01-08T02:36:14;1.90;;;1.40;;
15063;SDS011;7631;52.088;5.088;2023-01-08T02:38:44;1.63;;;1.30;;
15063;SDS011;7631;52.088;5.088;2023-01-08T02:41:14;2.03;;;1.43;;
15063;SDS011;7631;52.088;5.088;2023-01-08T02:43:42;1.63;;;1.33;;
15063;SDS011;7631;52.088;5.088;2023-01-08T02:46:10;1.93;;;1.40;;
15063;SDS011;7631;52.088;5.088;2023-01-08T02:48:53;1.87;;;1.30;;
15063;SDS011;7631;52.088;5.088;2023-01-08T02:51:21;1.87;;;1.40;;
15063;SDS011;7631;52.088;5.088;2023-01-08T02:53:49;1.73;;;1.13;;
15063;SDS011;7631;52.088;5.088;2023-01-08T02:56:17;2.27;;;1.30;;
15063;SDS011;7631;52.088;5.088;2023-01-08T02:58:43;2.60;;;1.60;;
15063;SDS011;7631;52.088;5.088;2023-01-08T03:01:09;1.40;;;1.17;;
15063;SDS011;7631;52.088;5.088;2023-01-08T03:03:35;2.27;;;1.40;;
15063;SDS011;7631;52.088;5.088;2023-01-08T03:06:04;2.20;;;1.17;;
15063;SDS011;7631;52.088;5.088;2023-01-08T03:08:30;1.53;;;1.30;;
15063;SDS011;7631;52.088;5.088;2023-01-08T03:11:04;2.20;;;1.43;;
15063;SDS011;7631;52.088;5.088;2023-01-08T03:16:20;1.33;;;1.23;;
15063;SDS011;7631;52.088;5.088;2023-01-08T03:18:54;2.17;;;1.17;;
15063;SDS011;7631;52.088;5.088;2023-01-08T03:21:21;1.93;;;1.30;;
15063;SDS011;7631;52.088;5.088;2023-01-08T03:23:47;1.70;;;1.20;;
15063;SDS011;7631;52.088;5.088;2023-01-08T03:26:13;1.37;;;1.20;;
15063;SDS011;7631;52.088;5.088;2023-01-08T03:28:42;2.40;;;1.50;;
15063;SDS011;7631;52.088;5.088;2023-01-08T03:31:08;1.73;;;1.57;;
15063;SDS011;7631;52.088;5.088;2023-01-08T03:33:34;2.10;;;1.37;;
15063;SDS011;7631;52.088;5.088;2023-01-08T03:36:00;1.20;;;1.10;;
15063;SDS011;7631;52.088;5.088;2023-01-08T03:38:31;1.63;;;1.40;;
15063;SDS011;7631;52.088;5.088;2023-01-08T03:41:02;1.70;;;1.23;;
15063;SDS011;7631;52.088;5.088;2023-01-08T03:43:29;1.40;;;1.20;;
15063;SDS011;7631;52.088;5.088;2023-01-08T03:45:55;2.03;;;1.20;;
15063;SDS011;7631;52.088;5.088;2023-01-08T03:48:22;1.43;;;1.20;;
15063;SDS011;7631;52.088;5.088;2023-01-08T03:50:48;2.60;;;1.57;;
15063;SDS011;7631;52.088;5.088;2023-01-08T03:53:13;1.80;;;1.30;;
15063;SDS011;7631;52.088;5.088;2023-01-08T03:55:39;2.47;;;1.23;;
15063;SDS011;7631;52.088;5.088;2023-01-08T03:58:04;1.83;;;1.50;;
15063;SDS011;7631;52.088;5.088;2023-01-08T04:00:29;1.10;;;1.00;;
15063;SDS011;7631;52.088;5.088;2023-01-08T04:02:54;1.37;;;1.20;;
15063;SDS011;7631;52.088;5.088;2023-01-08T04:05:20;1.80;;;1.30;;
15063;SDS011;7631;52.088;5.088;2023-01-08T04:07:45;1.97;;;1.20;;
15063;SDS011;7631;52.088;5.088;2023-01-08T04:10:10;1.80;;;1.63;;
15063;SDS011;7631;52.088;5.088;2023-01-08T04:12:35;1.60;;;1.50;;
15063;SDS011;7631;52.088;5.088;2023-01-08T04:15:00;2.40;;;1.53;;
15063;SDS011;7631;52.088;5.088;2023-01-08T04:17:25;2.30;;;1.33;;
15063;SDS011;7631;52.088;5.088;2023-01-08T04:19:51;1.93;;;1.30;;
15063;SDS011;7631;52.088;5.088;2023-01-08T04:22:16;1.70;;;1.30;;
15063;SDS011;7631;52.088;5.088;2023-01-08T04:24:41;2.27;;;1.40;;
15063;SDS011;7631;52.088;5.088;2023-01-08T04:27:06;2.37;;;1.20;;
15063;SDS011;7631;52.088;5.088;2023-01-08T04:29:31;2.90;;;1.73;;
15063;SDS011;7631;52.088;5.088;2023-01-08T04:31:57;1.67;;;1.30;;
15063;SDS011;7631;52.088;5.088;2023-01-08T04:34:22;2.23;;;1.33;;
15063;SDS011;7631;52.088;5.088;2023-01-08T04:36:47;1.87;;;1.53;;
15063;SDS011;7631;52.088;5.088;2023-01-08T04:39:12;1.77;;;1.20;;
15063;SDS011;7631;52.088;5.088;2023-01-08T04:41:38;1.33;;;1.20;;
15063;SDS011;7631;52.088;5.088;2023-01-08T04:44:03;1.80;;;1.23;;
15063;SDS011;7631;52.088;5.088;2023-01-08T04:46:28;2.60;;;1.20;;
15063;SDS011;7631;52.088;5.088;2023-01-08T04:48:53;1.77;;;1.33;;
15063;SDS011;7631;52.088;5.088;2023-01-08T04:51:19;2.13;;;1.37;;
15063;SDS011;7631;52.088;5.088;2023-01-08T04:53:45;1.47;;;1.30;;
15063;SDS011;7631;52.088;5.088;2023-01-08T04:56:10;1.23;;;1.10;;
15063;SDS011;7631;52.088;5.088;2023-01-08T04:58:36;2.03;;;1.10;;
15063;SDS011;7631;52.088;5.088;2023-01-08T05:01:12;2.33;;;1.40;;
15063;SDS011;7631;52.088;5.088;2023-01-08T05:03:37;1.43;;;1.33;;
15063;SDS011;7631;52.088;5.088;2023-01-08T05:06:02;3.33;;;1.50;;
15063;SDS011;7631;52.088;5.088;2023-01-08T05:08:28;1.23;;;1.00;;
15063;SDS011;7631;52.088;5.088;2023-01-08T05:10:53;1.87;;;1.40;;
15063;SDS011;7631;52.088;5.088;2023-01-08T05:13:18;1.60;;;1.27;;
15063;SDS011;7631;52.088;5.088;2023-01-08T05:15:43;2.17;;;1.20;;
15063;SDS011;7631;52.088;5.088;2023-01-08T05:18:08;1.60;;;1.23;;
15063;SDS011;7631;52.088;5.088;2023-01-08T05:20:34;1.50;;;1.20;;
15063;SDS011;7631;52.088;5.088;2023-01-08T05:23:06;1.40;;;1.30;;
15063;SDS011;7631;52.088;5.088;2023-01-08T05:25:31;1.77;;;1.10;;
15063;SDS011;7631;52.088;5.088;2023-01-08T05:27:56;1.57;;;1.20;;
15063;SDS011;7631;52.088;5.088;2023-01-08T05:30:21;1.33;;;1.17;;
15063;SDS011;7631;52.088;5.088;2023-01-08T05:32:47;1.90;;;1.20;;
15063;SDS011;7631;52.088;5.088;2023-01-08T05:35:12;1.80;;;1.07;;
15063;SDS011;7631;52.088;5.088;2023-01-08T05:37:37;1.77;;;1.10;;
15063;SDS011;7631;52.088;5.088;2023-01-08T05:40:03;2.13;;;1.20;;
15063;SDS011;7631;52.088;5.088;2023-01-08T05:42:28;1.93;;;1.10;;
15063;SDS011;7631;52.088;5.088;2023-01-08T05:44:54;2.37;;;1.60;;
15063;SDS011;7631;52.088;5.088;2023-01-08T05:47:19;1.87;;;1.20;;
15063;SDS011;7631;52.088;5.088;2023-01-08T05:49:44;1.70;;;1.03;;
15063;SDS011;7631;52.088;5.088;2023-01-08T05:52:09;1.27;;;1.07;;
15063;SDS011;7631;52.088;5.088;2023-01-08T05:54:34;2.07;;;1.37;;
15063;SDS011;7631;52.088;5.088;2023-01-08T05:57:00;1.77;;;1.17;;
15063;SDS011;7631;52.088;5.088;2023-01-08T05:59:25;1.40;;;1.17;;
15063;SDS011;7631;52.088;5.088;2023-01-08T06:01:50;1.30;;;0.90;;
15063;SDS011;7631;52.088;5.088;2023-01-08T06:04:15;2.07;;;1.13;;
15063;SDS011;7631;52.088;5.088;2023-01-08T06:06:40;1.50;;;1.00;;
15063;SDS011;7631;52.088;5.088;2023-01-08T06:09:06;1.67;;;0.90;;
15063;SDS011;7631;52.088;5.088;2023-01-08T06:11:31;2.00;;;1.10;;
15063;SDS011;7631;52.088;5.088;2023-01-08T06:13:56;1.90;;;1.20;;
15063;SDS011;7631;52.088;5.088;2023-01-08T06:16:21;1.77;;;1.10;;
15063;SDS011;7631;52.088;5.088;2023-01-08T06:18:46;1.90;;;1.10;;
15063;SDS011;7631;52.088;5.088;2023-01-08T06:21:12;1.70;;;1.13;;
15063;SDS011;7631;52.088;5.088;2023-01-08T06:23:37;1.60;;;1.10;;
15063;SDS011;7631;52.088;5.088;2023-01-08T06:26:03;1.93;;;0.97;;
15063;SDS011;7631;52.088;5.088;2023-01-08T06:28:28;2.17;;;1.10;;
15063;SDS011;7631;52.088;5.088;2023-01-08T06:30:55;1.10;;;1.00;;
15063;SDS011;7631;52.088;5.088;2023-01-08T06:33:21;1.07;;;0.90;;
15063;SDS011;7631;52.088;5.088;2023-01-08T06:35:46;2.07;;;1.20;;
15063;SDS011;7631;52.088;5.088;2023-01-08T06:38:11;1.30;;;1.10;;
15063;SDS011;7631;52.088;5.088;2023-01-08T06:40:36;1.83;;;1.00;;
15063;SDS011;7631;52.088;5.088;2023-01-08T06:43:05;2.27;;;1.30;;
15063;SDS011;7631;52.088;5.088;2023-01-08T06:45:30;1.20;;;1.10;;
15063;SDS011;7631;52.088;5.088;2023-01-08T06:47:59;2.20;;;1.10;;
15063;SDS011;7631;52.088;5.088;2023-01-08T06:50:24;2.00;;;1.13;;
15063;SDS011;7631;52.088;5.088;2023-01-08T06:52:53;1.70;;;1.07;;
15063;SDS011;7631;52.088;5.088;2023-01-08T06:55:19;1.53;;;1.03;;
15063;SDS011;7631;52.088;5.088;2023-01-08T06:57:44;1.60;;;1.10;;
15063;SDS011;7631;52.088;5.088;2023-01-08T07:00:10;1.23;;;1.00;;
15063;SDS011;7631;52.088;5.088;2023-01-08T07:02:35;2.33;;;1.10;;
15063;SDS011;7631;52.088;5.088;2023-01-08T07:05:00;1.30;;;1.00;;
15063;SDS011;7631;52.088;5.088;2023-01-08T07:07:25;1.97;;;0.97;;
15063;SDS011;7631;52.088;5.088;2023-01-08T07:09:50;2.03;;;1.20;;
15063;SDS011;7631;52.088;5.088;2023-01-08T07:12:16;1.70;;;1.10;;
15063;SDS011;7631;52.088;5.088;2023-01-08T07:14:41;2.00;;;1.20;;
15063;SDS011;7631;52.088;5.088;2023-01-08T07:17:06;1.80;;;1.00;;
15063;SDS011;7631;52.088;5.088;2023-01-08T07:19:31;1.80;;;1.10;;
15063;SDS011;7631;52.088;5.088;2023-01-08T07:21:57;1.20;;;1.03;;
15063;SDS011;7631;52.088;5.088;2023-01-08T07:24:22;2.17;;;1.17;;
15063;SDS011;7631;52.088;5.088;2023-01-08T07:26:47;2.27;;;1.20;;
15063;SDS011;7631;52.088;5.088;2023-01-08T07:29:12;3.00;;;1.23;;
15063;SDS011;7631;52.088;5.088;2023-01-08T07:31:38;2.40;;;1.27;;
15063;SDS011;7631;52.088;5.088;2023-01-08T07:34:03;1.60;;;1.10;;
15063;SDS011;7631;52.088;5.088;2023-01-08T07:36:28;2.20;;;1.20;;
15063;SDS011;7631;52.088;5.088;2023-01-08T07:38:53;1.70;;;1.30;;
15063;SDS011;7631;52.088;5.088;2023-01-08T07:41:18;1.47;;;1.03;;
15063;SDS011;7631;52.088;5.088;2023-01-08T07:43:45;3.23;;;1.57;;
15063;SDS011;7631;52.088;5.088;2023-01-08T07:46:12;1.67;;;1.00;;
15063;SDS011;7631;52.088;5.088;2023-01-08T07:48:38;1.63;;;1.00;;
15063;SDS011;7631;52.088;5.088;2023-01-08T07:51:04;2.07;;;1.23;;
15063;SDS011;7631;52.088;5.088;2023-01-08T07:53:29;1.97;;;1.27;;
15063;SDS011;7631;52.088;5.088;2023-01-08T07:56:02;2.87;;;1.20;;
15063;SDS011;7631;52.088;5.088;2023-01-08T07:58:28;4.73;;;1.40;;
15063;SDS011;7631;52.088;5.088;2023-01-08T08:00:53;2.27;;;1.17;;
15063;SDS011;7631;52.088;5.088;2023-01-08T08:03:18;1.50;;;1.00;;
15063;SDS011;7631;52.088;5.088;2023-01-08T08:05:44;1.73;;;1.20;;
15063;SDS011;7631;52.088;5.088;2023-01-08T08:08:09;2.13;;;1.20;;
15063;SDS011;7631;52.088;5.088;2023-01-08T08:10:35;1.53;;;1.20;;
15063;SDS011;7631;52.088;5.088;2023-01-08T08:13:01;2.17;;;1.00;;
15063;SDS011;7631;52.088;5.088;2023-01-08T08:15:26;1.40;;;1.20;;
15063;SDS011;7631;52.088;5.088;2023-01-08T08:17:52;2.10;;;0.97;;
15063;SDS011;7631;52.088;5.088;2023-01-08T08:20:17;2.27;;;1.10;;
15063;SDS011;7631;52.088;5.088;2023-01-08T08:22:42;1.97;;;1.00;;
15063;SDS011;7631;52.088;5.088;2023-01-08T08:25:07;3.50;;;1.43;;
15063;SDS011;7631;52.088;5.088;2023-01-08T08:27:33;1.67;;;0.97;;
15063;SDS011;7631;52.088;5.088;2023-01-08T08:29:58;2.23;;;1.27;;
15063;SDS011;7631;52.088;5.088;2023-01-08T08:32:23;2.47;;;1.10;;
15063;SDS011;7631;52.088;5.088;2023-01-08T08:34:48;1.87;;;1.20;;
15063;SDS011;7631;52.088;5.088;2023-01-08T08:37:14;1.57;;;1.00;;
15063;SDS011;7631;52.088;5.088;2023-01-08T08:39:40;1.00;;;0.90;;
15063;SDS011;7631;52.088;5.088;2023-01-08T08:42:05;1.90;;;1.10;;
15063;SDS011;7631;52.088;5.088;2023-01-08T08:44:30;1.67;;;1.13;;
15063;SDS011;7631;52.088;5.088;2023-01-08T08:46:55;1.20;;;1.10;;
15063;SDS011;7631;52.088;5.088;2023-01-08T08:49:20;2.73;;;1.10;;
15063;SDS011;7631;52.088;5.088;2023-01-08T08:51:45;2.23;;;1.10;;
15063;SDS011;7631;52.088;5.088;2023-01-08T08:54:11;4.87;;;1.20;;
15063;SDS011;7631;52.088;5.088;2023-01-08T08:56:36;2.13;;;1.03;;
15063;SDS011;7631;52.088;5.088;2023-01-08T08:59:01;2.43;;;1.30;;
15063;SDS011;7631;52.088;5.088;2023-01-08T09:01:26;3.27;;;1.20;;
15063;SDS011;7631;52.088;5.088;2023-01-08T09:03:51;1.97;;;1.07;;
15063;SDS011;7631;52.088;5.088;2023-01-08T09:06:17;1.77;;;0.90;;
15063;SDS011;7631;52.088;5.088;2023-01-08T09:08:42;1.03;;;0.90;;
15063;SDS011;7631;52.088;5.088;2023-01-08T09:11:08;2.70;;;1.37;;
15063;SDS011;7631;52.088;5.088;2023-01-08T09:13:34;2.10;;;1.10;;
15063;SDS011;7631;52.088;5.088;2023-01-08T09:16:00;2.83;;;1.20;;
15063;SDS011;7631;52.088;5.088;2023-01-08T09:18:25;2.67;;;1.10;;
15063;SDS011;7631;52.088;5.088;2023-01-08T09:20:50;3.80;;;1.30;;
15063;SDS011;7631;52.088;5.088;2023-01-08T09:23:15;2.40;;;1.30;;
15063;SDS011;7631;52.088;5.088;2023-01-08T09:25:40;2.63;;;0.80;;
15063;SDS011;7631;52.088;5.088;2023-01-08T09:28:06;2.93;;;1.20;;
15063;SDS011;7631;52.088;5.088;2023-01-08T09:30:32;1.70;;;1.10;;
15063;SDS011;7631;52.088;5.088;2023-01-08T09:32:58;2.80;;;1.00;;
15063;SDS011;7631;52.088;5.088;2023-01-08T09:35:23;3.00;;;1.00;;
15063;SDS011;7631;52.088;5.088;2023-01-08T09:37:49;2.60;;;0.97;;
15063;SDS011;7631;52.088;5.088;2023-01-08T09:40:14;1.67;;;1.07;;
15063;SDS011;7631;52.088;5.088;2023-01-08T09:42:40;2.13;;;1.00;;
15063;SDS011;7631;52.088;5.088;2023-01-08T09:45:05;3.30;;;1.40;;
15063;SDS011;7631;52.088;5.088;2023-01-08T09:47:35;4.37;;;1.40;;
15063;SDS011;7631;52.088;5.088;2023-01-08T09:50:03;3.27;;;1.27;;
15063;SDS011;7631;52.088;5.088;2023-01-08T09:52:30;5.00;;;1.33;;
15063;SDS011;7631;52.088;5.088;2023-01-08T09:54:55;3.13;;;1.13;;
15063;SDS011;7631;52.088;5.088;2023-01-08T09:57:21;2.23;;;0.90;;
15063;SDS011;7631;52.088;5.088;2023-01-08T09:59:46;3.40;;;1.60;;
15063;SDS011;7631;52.088;5.088;2023-01-08T10:02:13;5.03;;;1.70;;
15063;SDS011;7631;52.088;5.088;2023-01-08T10:04:39;4.67;;;1.50;;
15063;SDS011;7631;52.088;5.088;2023-01-08T10:07:17;5.63;;;1.30;;
15063;SDS011;7631;52.088;5.088;2023-01-08T10:09:45;4.37;;;1.63;;
15063;SDS011;7631;52.088;5.088;2023-01-08T10:12:10;5.37;;;1.50;;
15063;SDS011;7631;52.088;5.088;2023-01-08T10:14:38;3.77;;;1.47;;
15063;SDS011;7631;52.088;5.088;2023-01-08T10:17:06;2.97;;;1.50;;
15063;SDS011;7631;52.088;5.088;2023-01-08T10:19:32;3.70;;;1.30;;
15063;SDS011;7631;52.088;5.088;2023-01-08T10:21:57;3.93;;;1.50;;
15063;SDS011;7631;52.088;5.088;2023-01-08T10:24:44;3.60;;;1.40;;
15063;SDS011;7631;52.088;5.088;2023-01-08T10:27:17;5.83;;;1.77;;
15063;SDS011;7631;52.088;5.088;2023-01-08T10:29:43;2.60;;;1.20;;
15063;SDS011;7631;52.088;5.088;2023-01-08T10:32:11;2.00;;;1.30;;
15063;SDS011;7631;52.088;5.088;2023-01-08T10:34:40;3.97;;;1.60;;
15063;SDS011;7631;52.088;5.088;2023-01-08T10:39:51;4.03;;;1.50;;
15063;SDS011;7631;52.088;5.088;2023-01-08T10:42:16;3.43;;;1.43;;
15063;SDS011;7631;52.088;5.088;2023-01-08T10:45:02;5.33;;;1.77;;
15063;SDS011;7631;52.088;5.088;2023-01-08T10:47:29;3.67;;;1.80;;
15063;SDS011;7631;52.088;5.088;2023-01-08T10:49:55;3.03;;;1.60;;
15063;SDS011;7631;52.088;5.088;2023-01-08T10:52:31;3.10;;;1.30;;
15063;SDS011;7631;52.088;5.088;2023-01-08T10:54:58;5.20;;;1.40;;
15063;SDS011;7631;52.088;5.088;2023-01-08T10:57:34;2.40;;;1.23;;
15063;SDS011;7631;52.088;5.088;2023-01-08T10:59:59;2.57;;;1.23;;
15063;SDS011;7631;52.088;5.088;2023-01-08T11:02:34;3.87;;;1.53;;
15063;SDS011;7631;52.088;5.088;2023-01-08T11:05:00;3.70;;;1.83;;
15063;SDS011;7631;52.088;5.088;2023-01-08T11:07:27;4.27;;;1.40;;
15063;SDS011;7631;52.088;5.088;2023-01-08T11:09:52;4.03;;;1.50;;
15063;SDS011;7631;52.088;5.088;2023-01-08T11:12:32;3.07;;;1.33;;
15063;SDS011;7631;52.088;5.088;2023-01-08T11:14:59;4.07;;;2.07;;
15063;SDS011;7631;52.088;5.088;2023-01-08T11:17:25;4.67;;;1.50;;
15063;SDS011;7631;52.088;5.088;2023-01-08T11:19:51;4.03;;;1.43;;
15063;SDS011;7631;52.088;5.088;2023-01-08T11:22:17;4.87;;;1.63;;
15063;SDS011;7631;52.088;5.088;2023-01-08T11:24:43;3.37;;;1.37;;
15063;SDS011;7631;52.088;5.088;2023-01-08T11:34:35;5.00;;;1.47;;
15063;SDS011;7631;52.088;5.088;2023-01-08T11:37:04;2.67;;;1.40;;
15063;SDS011;7631;52.088;5.088;2023-01-08T11:39:34;4.07;;;1.53;;
15063;SDS011;7631;52.088;5.088;2023-01-08T11:45:15;4.50;;;1.30;;
15063;SDS011;7631;52.088;5.088;2023-01-08T11:49:59;2.70;;;1.43;;
15063;SDS011;7631;52.088;5.088;2023-01-08T11:52:37;3.80;;;1.43;;
15063;SDS011;7631;52.088;5.088;2023-01-08T12:07:40;2.07;;;1.20;;
15063;SDS011;7631;52.088;5.088;2023-01-08T12:25:30;3.20;;;1.60;;
15063;SDS011;7631;52.088;5.088;2023-01-08T12:33:03;2.90;;;1.70;;
15063;SDS011;7631;52.088;5.088;2023-01-08T12:35:31;3.47;;;1.70;;
15063;SDS011;7631;52.088;5.088;2023-01-08T12:38:07;2.37;;;1.40;;
15063;SDS011;7631;52.088;5.088;2023-01-08T12:40:35;2.47;;;1.70;;
15063;SDS011;7631;52.088;5.088;2023-01-08T12:43:04;3.17;;;1.70;;
15063;SDS011;7631;52.088;5.088;2023-01-08T12:45:40;2.13;;;1.70;;
15063;SDS011;7631;52.088;5.088;2023-01-08T12:48:07;2.63;;;2.00;;
15063;SDS011;7631;52.088;5.088;2023-01-08T12:50:51;3.43;;;1.97;;
15063;SDS011;7631;52.088;5.088;2023-01-08T12:53:27;4.00;;;1.80;;
15063;SDS011;7631;52.088;5.088;2023-01-08T12:56:12;2.23;;;1.70;;
15063;SDS011;7631;52.088;5.088;2023-01-08T13:01:31;3.10;;;1.80;;
15063;SDS011;7631;52.088;5.088;2023-01-08T13:03:57;3.40;;;1.80;;
15063;SDS011;7631;52.088;5.088;2023-01-08T13:06:23;3.30;;;2.00;;
15063;SDS011;7631;52.088;5.088;2023-01-08T13:08:50;2.63;;;1.70;;
15063;SDS011;7631;52.088;5.088;2023-01-08T13:11:22;2.93;;;2.10;;
15063;SDS011;7631;52.088;5.088;2023-01-08T13:13:48;2.63;;;1.83;;
15063;SDS011;7631;52.088;5.088;2023-01-08T13:16:21;3.13;;;1.97;;
15063;SDS011;7631;52.088;5.088;2023-01-08T13:21:26;3.97;;;2.00;;
15063;SDS011;7631;52.088;5.088;2023-01-08T13:23:58;1.80;;;1.50;;
15063;SDS011;7631;52.088;5.088;2023-01-08T13:26:27;3.27;;;2.00;;
15063;SDS011;7631;52.088;5.088;2023-01-08T13:28:52;2.50;;;1.50;;
15063;SDS011;7631;52.088;5.088;2023-01-08T13:33:49;3.07;;;1.60;;
15063;SDS011;7631;52.088;5.088;2023-01-08T13:41:35;3.20;;;1.80;;
15063;SDS011;7631;52.088;5.088;2023-01-08T13:44:03;3.03;;;1.67;;
15063;SDS011;7631;52.088;5.088;2023-01-08T13:46:30;2.73;;;1.80;;
15063;SDS011;7631;52.088;5.088;2023-01-08T13:53:52;2.07;;;1.57;;
15063;SDS011;7631;52.088;5.088;2023-01-08T13:56:17;4.30;;;1.97;;
15063;SDS011;7631;52.088;5.088;2023-01-08T13:58:45;1.80;;;1.40;;
15063;SDS011;7631;52.088;5.088;2023-01-08T14:01:15;1.77;;;1.47;;
15063;SDS011;7631;52.088;5.088;2023-01-08T14:03:44;3.33;;;1.70;;
15063;SDS011;7631;52.088;5.088;2023-01-08T14:08:36;2.53;;;1.70;;
15063;SDS011;7631;52.088;5.088;2023-01-08T14:11:01;1.83;;;1.33;;
15063;SDS011;7631;52.088;5.088;2023-01-08T14:13:27;2.17;;;1.30;;
15063;SDS011;7631;52.088;5.088;2023-01-08T14:15:57;2.60;;;1.33;;
15063;SDS011;7631;52.088;5.088;2023-01-08T14:18:24;1.80;;;1.40;;
15063;SDS011;7631;52.088;5.088;2023-01-08T14:20:52;2.43;;;1.47;;
15063;SDS011;7631;52.088;5.088;2023-01-08T14:23:19;3.23;;;1.50;;
15063;SDS011;7631;52.088;5.088;2023-01-08T14:25:48;3.20;;;1.50;;
15063;SDS011;7631;52.088;5.088;2023-01-08T14:28:15;2.40;;;1.40;;
15063;SDS011;7631;52.088;5.088;2023-01-08T14:30:51;1.90;;;1.40;;
15063;SDS011;7631;52.088;5.088;2023-01-08T14:33:18;2.07;;;1.70;;
15063;SDS011;7631;52.088;5.088;2023-01-08T14:35:44;1.93;;;1.30;;
15063;SDS011;7631;52.088;5.088;2023-01-08T14:38:11;2.33;;;1.40;;
15063;SDS011;7631;52.088;5.088;2023-01-08T14:40:38;1.73;;;1.20;;
15063;SDS011;7631;52.088;5.088;2023-01-08T14:43:06;2.80;;;1.40;;
15063;SDS011;7631;52.088;5.088;2023-01-08T14:45:32;2.03;;;1.33;;
15063;SDS011;7631;52.088;5.088;2023-01-08T14:50:24;1.90;;;1.20;;
15063;SDS011;7631;52.088;5.088;2023-01-08T14:52:50;2.70;;;1.47;;
15063;SDS011;7631;52.088;5.088;2023-01-08T14:55:16;3.00;;;1.40;;
15063;SDS011;7631;52.088;5.088;2023-01-08T14:57:46;2.77;;;1.30;;
15063;SDS011;7631;52.088;5.088;2023-01-08T15:00:20;2.10;;;1.37;;
15063;SDS011;7631;52.088;5.088;2023-01-08T15:02:46;1.50;;;1.27;;
15063;SDS011;7631;52.088;5.088;2023-01-08T15:05:16;3.73;;;1.33;;
15063;SDS011;7631;52.088;5.088;2023-01-08T15:07:42;3.90;;;1.50;;
15063;SDS011;7631;52.088;5.088;2023-01-08T15:10:22;1.43;;;1.10;;
15063;SDS011;7631;52.088;5.088;2023-01-08T15:12:56;3.23;;;1.50;;
15063;SDS011;7631;52.088;5.088;2023-01-08T15:15:22;2.30;;;1.30;;
15063;SDS011;7631;52.088;5.088;2023-01-08T15:17:47;3.53;;;1.60;;
15063;SDS011;7631;52.088;5.088;2023-01-08T15:20:15;2.53;;;1.30;;
15063;SDS011;7631;52.088;5.088;2023-01-08T15:22:41;2.73;;;1.30;;
15063;SDS011;7631;52.088;5.088;2023-01-08T15:25:13;3.43;;;1.50;;
15063;SDS011;7631;52.088;5.088;2023-01-08T15:27:39;2.85;;;1.50;;
15063;SDS011;7631;52.088;5.088;2023-01-08T15:30:05;2.80;;;1.43;;
15063;SDS011;7631;52.088;5.088;2023-01-08T15:32:33;4.07;;;1.33;;
15063;SDS011;7631;52.088;5.088;2023-01-08T15:35:01;2.73;;;1.37;;
15063;SDS011;7631;52.088;5.088;2023-01-08T15:37:26;4.03;;;1.63;;
15063;SDS011;7631;52.088;5.088;2023-01-08T15:39:52;4.17;;;1.70;;
15063;SDS011;7631;52.088;5.088;2023-01-08T15:42:22;3.73;;;1.40;;
15063;SDS011;7631;52.088;5.088;2023-01-08T15:45:16;2.07;;;1.30;;
15063;SDS011;7631;52.088;5.088;2023-01-08T15:47:42;1.93;;;1.17;;
15063;SDS011;7631;52.088;5.088;2023-01-08T15:50:07;3.87;;;1.63;;
15063;SDS011;7631;52.088;5.088;2023-01-08T15:52:33;4.40;;;1.20;;
15063;SDS011;7631;52.088;5.088;2023-01-08T15:54:59;5.37;;;1.63;;
15063;SDS011;7631;52.088;5.088;2023-01-08T15:57:25;2.33;;;1.23;;
15063;SDS011;7631;52.088;5.088;2023-01-08T15:59:50;5.23;;;1.40;;
15063;SDS011;7631;52.088;5.088;2023-01-08T16:02:16;4.33;;;1.90;;
15063;SDS011;7631;52.088;5.088;2023-01-08T16:04:41;3.10;;;1.40;;
15063;SDS011;7631;52.088;5.088;2023-01-08T16:07:07;2.43;;;1.30;;
15063;SDS011;7631;52.088;5.088;2023-01-08T16:09:32;2.80;;;1.23;;
15063;SDS011;7631;52.088;5.088;2023-01-08T16:11:57;3.03;;;1.50;;
15063;SDS011;7631;52.088;5.088;2023-01-08T16:14:23;3.03;;;1.20;;
15063;SDS011;7631;52.088;5.088;2023-01-08T16:16:48;3.17;;;1.30;;
15063;SDS011;7631;52.088;5.088;2023-01-08T16:19:13;2.80;;;1.27;;
15063;SDS011;7631;52.088;5.088;2023-01-08T16:21:38;1.87;;;1.20;;
15063;SDS011;7631;52.088;5.088;2023-01-08T16:24:04;2.97;;;1.33;;